Time;durP1;ratioP1;P1;durP2;ratioP2;P2;SDS_P1;SDS_P2;PMS_P1;PMS_P2;Temp;Humidity;BMP_temperature;BMP_pressure;BME280_temperature;BME280_humidity;BME280_pressure;Samples;Min_cycle;Max_cycle;Signal;HPM_P1;HPM_P2
2022/03/16 00:00:02;;;;;;;41.70;27.30;;;13.40;55.70;;;;;;5011669;28;20495;-74
2022/03/16 00:02:27;;;;;;;37.63;25.73;;;13.50;54.70;;;;;;5011269;28;20954;-75
2022/03/16 00:04:55;;;;;;;54.33;28.90;;;13.60;54.10;;;;;;5011553;28;20482;-74
2022/03/16 00:07:21;;;;;;;48.60;28.43;;;13.60;55.60;;;;;;5003591;28;20541;-74
2022/03/16 00:09:47;;;;;;;47.57;31.20;;;13.30;56.20;;;;;;5011457;28;20524;-74
2022/03/16 00:12:14;;;;;;;63.70;35.17;;;13.30;56.50;;;;;;5011277;28;20440;-74
2022/03/16 00:14:40;;;;;;;62.40;39.03;;;12.80;59.60;;;;;;5007393;28;20926;-74
2022/03/16 00:17:07;;;;;;;66.07;39.60;;;13.10;57.90;;;;;;5010429;28;20432;-74
2022/03/16 00:19:33;;;;;;;71.80;42.80;;;12.80;59.90;;;;;;5002470;28;20428;-74
2022/03/16 00:22:01;;;;;;;72.87;42.80;;;13.00;59.80;;;;;;5009750;28;20475;-74
2022/03/16 00:24:27;;;;;;;78.90;43.63;;;13.20;58.40;;;;;;5004125;28;20787;-74
2022/03/16 00:26:53;;;;;;;72.27;43.20;;;13.20;58.90;;;;;;5003311;28;20435;-74
2022/03/16 00:29:18;;;;;;;78.77;44.67;;;12.80;59.80;;;;;;5010369;28;20181;-74
2022/03/16 00:31:44;;;;;;;76.93;43.03;;;13.00;58.30;;;;;;5002833;28;20201;-75
2022/03/16 00:34:10;;;;;;;80.37;43.80;;;13.10;58.10;;;;;;5003131;28;20319;-74
2022/03/16 00:36:36;;;;;;;80.77;44.20;;;12.90;58.00;;;;;;5010869;28;20520;-74
2022/03/16 00:39:03;;;;;;;84.80;47.10;;;12.70;60.10;;;;;;5002731;28;20686;-74
2022/03/16 00:41:29;;;;;;;90.60;45.90;;;12.70;60.80;;;;;;5003425;28;20802;-74
2022/03/16 00:43:54;;;;;;;79.67;44.60;;;12.90;58.70;;;;;;5010597;28;20511;-74
2022/03/16 00:46:20;;;;;;;87.20;47.30;;;12.90;57.50;;;;;;5002799;28;20178;-74
2022/03/16 00:48:46;;;;;;;83.57;44.60;;;12.70;59.60;;;;;;5001493;28;20193;-74
2022/03/16 00:51:12;;;;;;;78.43;41.40;;;12.50;59.70;;;;;;5005112;28;20468;-74
2022/03/16 00:53:39;;;;;;;78.60;42.17;;;12.60;60.00;;;;;;5009931;28;20276;-74
2022/03/16 00:56:06;;;;;;;77.27;41.27;;;12.60;59.30;;;;;;4999372;28;20549;-75
2022/03/16 00:58:32;;;;;;;77.17;40.07;;;12.50;59.20;;;;;;5006773;28;20841;-74
2022/03/16 01:00:58;;;;;;;73.27;39.00;;;12.60;59.20;;;;;;5010993;28;20499;-74
2022/03/16 01:03:24;;;;;;;80.73;41.90;;;12.50;59.80;;;;;;5006722;28;20181;-74
2022/03/16 01:05:50;;;;;;;91.20;42.43;;;12.80;59.80;;;;;;5013364;28;20435;-74
2022/03/16 01:08:16;;;;;;;86.20;43.93;;;12.70;58.20;;;;;;5010503;28;20425;-74
2022/03/16 01:10:42;;;;;;;84.40;43.37;;;13.00;56.30;;;;;;5011270;28;20238;-74
2022/03/16 01:13:08;;;;;;;72.67;40.67;;;12.70;57.60;;;;;;5014493;28;20479;-75
2022/03/16 01:15:33;;;;;;;75.80;42.00;;;12.50;59.90;;;;;;5012428;28;20230;-75
2022/03/16 01:17:59;;;;;;;86.63;43.73;;;12.50;61.80;;;;;;5013438;28;20860;-74
2022/03/16 01:20:25;;;;;;;92.40;45.93;;;12.30;60.90;;;;;;5008907;28;20204;-74
2022/03/16 01:22:50;;;;;;;81.70;41.70;;;12.50;59.50;;;;;;5013191;28;20173;-75
2022/03/16 01:25:16;;;;;;;88.83;43.00;;;12.80;58.20;;;;;;5008769;28;20996;-75
2022/03/16 01:27:42;;;;;;;89.37;44.33;;;13.10;55.40;;;;;;5008707;28;20175;-74
2022/03/16 01:30:08;;;;;;;87.13;44.10;;;12.60;58.30;;;;;;5012900;28;20188;-75
2022/03/16 01:32:34;;;;;;;88.70;46.47;;;12.80;57.80;;;;;;5014446;28;20205;-74
2022/03/16 01:35:00;;;;;;;93.43;45.13;;;12.90;56.10;;;;;;5006567;28;20446;-74
2022/03/16 01:37:25;;;;;;;87.20;45.03;;;13.00;56.60;;;;;;5013716;28;20198;-74
2022/03/16 01:39:51;;;;;;;84.10;42.83;;;13.40;54.10;;;;;;5014539;28;20197;-74
2022/03/16 01:42:17;;;;;;;90.03;45.37;;;13.40;53.80;;;;;;5005110;28;20698;-74
2022/03/16 01:44:47;;;;;;;81.67;44.63;;;13.40;53.80;;;;;;5008524;28;20257;-74
2022/03/16 01:47:15;;;;;;;100.80;46.50;;;13.10;54.30;;;;;;5006101;28;20228;-74
2022/03/16 01:49:40;;;;;;;93.57;46.13;;;13.10;55.50;;;;;;5013727;28;20417;-75
2022/03/16 01:52:08;;;;;;;109.07;49.10;;;13.10;55.30;;;;;;5012912;28;20463;-74
2022/03/16 01:54:34;;;;;;;100.50;47.03;;;13.00;56.20;;;;;;5006190;28;20773;-74
2022/03/16 01:57:00;;;;;;;98.93;48.70;;;13.00;56.00;;;;;;5006783;28;20432;-75
2022/03/16 01:59:26;;;;;;;99.67;46.80;;;13.00;56.60;;;;;;5012838;28;20799;-74
2022/03/16 02:01:51;;;;;;;102.40;47.63;;;13.00;56.70;;;;;;5010372;28;20234;-74
2022/03/16 02:04:17;;;;;;;104.00;48.30;;;12.90;56.60;;;;;;5013076;28;20616;-74
2022/03/16 02:06:43;;;;;;;110.87;49.47;;;12.90;57.70;;;;;;5006987;28;20719;-75
2022/03/16 02:09:08;;;;;;;113.20;50.13;;;12.90;56.90;;;;;;5013686;28;20616;-74
2022/03/16 02:11:34;;;;;;;120.63;50.87;;;13.00;56.00;;;;;;5001029;28;20445;-74
2022/03/16 02:14:00;;;;;;;115.33;50.70;;;13.00;55.60;;;;;;5010678;28;20185;-74
2022/03/16 02:16:26;;;;;;;114.97;50.47;;;12.80;57.10;;;;;;5009414;28;20237;-74
2022/03/16 02:18:52;;;;;;;112.10;48.17;;;12.90;56.90;;;;;;5013509;28;20468;-74
2022/03/16 02:21:19;;;;;;;127.30;51.07;;;12.90;56.90;;;;;;5012635;28;20464;-74
2022/03/16 02:23:44;;;;;;;122.10;51.97;;;12.80;57.90;;;;;;5007735;28;20469;-74
2022/03/16 02:26:14;;;;;;;118.40;51.90;;;13.10;56.40;;;;;;5009359;28;20846;-74
2022/03/16 02:28:40;;;;;;;120.63;50.30;;;13.00;55.90;;;;;;5011781;28;20626;-74
2022/03/16 02:31:05;;;;;;;115.97;51.03;;;12.90;56.70;;;;;;5005433;28;20523;-74
2022/03/16 02:33:31;;;;;;;121.93;49.47;;;13.20;55.20;;;;;;5012637;28;20186;-76
2022/03/16 02:35:57;;;;;;;123.70;52.53;;;13.20;55.10;;;;;;5001780;28;20428;-74
2022/03/16 02:38:23;;;;;;;131.67;50.83;;;13.20;54.80;;;;;;5009720;28;20421;-75
2022/03/16 02:40:48;;;;;;;128.27;51.80;;;13.10;55.00;;;;;;5028179;28;20324;-74
2022/03/16 02:43:14;;;;;;;130.60;53.43;;;13.00;55.50;;;;;;5013095;28;20934;-75
2022/03/16 02:45:40;;;;;;;137.10;53.70;;;13.00;55.80;;;;;;5011076;28;20221;-75
2022/03/16 02:48:06;;;;;;;135.97;53.83;;;13.10;55.30;;;;;;5027161;28;20643;-76
2022/03/16 02:50:32;;;;;;;147.83;53.57;;;13.20;54.50;;;;;;5004339;28;20546;-77
2022/03/16 02:52:58;;;;;;;114.10;48.47;;;13.30;54.50;;;;;;5013053;28;20530;-74
2022/03/16 02:55:24;;;;;;;135.30;54.07;;;13.30;53.90;;;;;;5013050;28;20567;-74
2022/03/16 02:57:49;;;;;;;131.73;52.43;;;13.30;53.90;;;;;;5011965;28;20432;-74
2022/03/16 03:00:15;;;;;;;108.23;48.57;;;13.80;53.20;;;;;;5004683;28;20448;-74
2022/03/16 03:02:41;;;;;;;130.27;51.80;;;13.60;51.90;;;;;;5011516;28;20177;-75
2022/03/16 03:05:07;;;;;;;117.40;49.47;;;13.60;51.90;;;;;;5002424;28;20790;-74
2022/03/16 03:07:33;;;;;;;114.50;50.00;;;13.50;52.10;;;;;;5012442;28;20177;-74
2022/03/16 03:09:59;;;;;;;119.23;54.93;;;13.50;53.30;;;;;;5010002;28;20417;-74
2022/03/16 03:12:25;;;;;;;126.33;52.33;;;13.60;52.20;;;;;;5007406;28;20590;-74
2022/03/16 03:14:50;;;;;;;125.13;50.93;;;13.50;52.30;;;;;;5004155;28;20779;-75
2022/03/16 03:17:16;;;;;;;133.43;53.83;;;13.40;54.10;;;;;;5009939;28;20664;-74
2022/03/16 03:19:43;;;;;;;132.33;52.43;;;13.40;53.40;;;;;;5004872;28;20182;-75
2022/03/16 03:22:09;;;;;;;115.80;49.27;;;13.30;53.70;;;;;;5012054;28;20209;-75
2022/03/16 03:24:35;;;;;;;122.63;50.57;;;13.10;54.50;;;;;;5012964;28;20449;-74
2022/03/16 03:27:01;;;;;;;111.20;50.57;;;13.10;55.00;;;;;;5011613;28;20609;-74
2022/03/16 03:29:27;;;;;;;128.67;53.53;;;12.70;56.90;;;;;;5007170;28;20501;-76
2022/03/16 03:31:53;;;;;;;127.23;51.27;;;12.50;60.70;;;;;;5009365;28;20661;-76
2022/03/16 03:34:18;;;;;;;124.83;50.87;;;12.80;57.70;;;;;;5012654;28;20503;-75
2022/03/16 03:36:44;;;;;;;126.07;50.60;;;13.00;56.50;;;;;;5011565;28;20424;-74
2022/03/16 03:39:10;;;;;;;122.97;50.80;;;13.00;56.70;;;;;;5004010;28;20236;-74
2022/03/16 03:41:36;;;;;;;116.43;50.50;;;12.80;57.40;;;;;;5011925;28;20222;-74
2022/03/16 03:44:02;;;;;;;122.80;51.13;;;12.80;58.10;;;;;;5012259;28;20177;-74
2022/03/16 03:46:27;;;;;;;130.17;52.43;;;12.80;57.50;;;;;;5010465;28;20502;-74
2022/03/16 03:48:53;;;;;;;130.70;53.57;;;13.00;56.30;;;;;;5012288;28;20647;-74
2022/03/16 03:51:19;;;;;;;137.23;49.73;;;13.40;54.30;;;;;;5003333;28;20213;-75
2022/03/16 03:53:45;;;;;;;135.63;50.17;;;13.40;53.40;;;;;;5012153;28;20531;-75
2022/03/16 03:56:11;;;;;;;134.20;51.23;;;13.30;53.50;;;;;;5000446;28;21026;-75
2022/03/16 03:58:38;;;;;;;138.20;49.77;;;13.40;53.40;;;;;;5011940;28;20213;-74
2022/03/16 04:01:05;;;;;;;134.10;50.30;;;13.30;53.80;;;;;;5003906;28;20583;-75
2022/03/16 04:03:31;;;;;;;153.57;53.77;;;12.90;55.40;;;;;;5004154;28;20953;-74
2022/03/16 04:05:57;;;;;;;158.63;54.07;;;13.00;55.80;;;;;;5011557;28;20425;-74
2022/03/16 04:08:22;;;;;;;175.07;54.17;;;12.90;56.90;;;;;;5003433;28;20469;-74
2022/03/16 04:10:48;;;;;;;138.17;49.03;;;13.50;55.60;;;;;;5011353;28;20205;-75
2022/03/16 04:13:14;;;;;;;146.60;52.40;;;13.10;55.40;;;;;;5006157;28;20548;-76
2022/03/16 04:15:39;;;;;;;152.87;54.67;;;12.90;56.10;;;;;;5007982;28;20273;-75
2022/03/16 04:18:05;;;;;;;146.80;52.67;;;13.00;56.30;;;;;;5000470;28;20200;-74
2022/03/16 04:20:31;;;;;;;152.97;53.90;;;12.90;56.00;;;;;;5011090;28;20297;-77
2022/03/16 04:22:56;;;;;;;144.33;52.30;;;13.40;55.90;;;;;;5003773;28;20177;-75
2022/03/16 04:25:22;;;;;;;149.10;55.23;;;13.00;55.80;;;;;;5011082;28;20189;-75
2022/03/16 04:27:47;;;;;;;150.07;55.67;;;13.10;55.00;;;;;;5011127;28;20795;-74
2022/03/16 04:30:13;;;;;;;144.80;53.13;;;12.90;56.10;;;;;;5003388;28;20259;-74
2022/03/16 04:32:39;;;;;;;139.40;52.73;;;12.90;55.90;;;;;;5002953;28;20209;-75
2022/03/16 04:35:04;;;;;;;166.77;57.23;;;12.90;56.50;;;;;;5011560;28;20557;-76
2022/03/16 04:37:30;;;;;;;168.53;58.30;;;12.90;56.40;;;;;;5009253;28;20644;-74
2022/03/16 04:39:56;;;;;;;164.67;57.40;;;13.00;56.50;;;;;;5002713;28;21254;-74
2022/03/16 04:42:21;;;;;;;183.17;56.23;;;13.10;55.40;;;;;;5018628;28;20297;-75
2022/03/16 04:44:47;;;;;;;189.93;60.97;;;13.10;55.50;;;;;;5010353;28;20175;-75
2022/03/16 04:47:13;;;;;;;142.93;53.87;;;12.90;56.50;;;;;;5002961;28;20555;-77
2022/03/16 04:49:38;;;;;;;155.63;55.97;;;13.30;56.70;;;;;;5002616;28;20270;-74
2022/03/16 04:52:04;;;;;;;135.37;52.33;;;12.60;58.60;;;;;;5002763;28;20209;-74
2022/03/16 04:54:30;;;;;;;126.60;53.40;;;12.70;58.50;;;;;;5003025;28;20661;-74
2022/03/16 04:56:56;;;;;;;135.13;54.50;;;12.80;57.70;;;;;;5002978;28;20420;-74
2022/03/16 04:59:21;;;;;;;127.80;51.37;;;12.80;57.10;;;;;;5010984;28;20193;-74
2022/03/16 05:01:47;;;;;;;116.63;51.43;;;12.90;56.10;;;;;;5000774;28;20460;-75
2022/03/16 05:04:13;;;;;;;130.53;53.33;;;13.20;55.30;;;;;;5005481;28;20169;-76
2022/03/16 05:06:39;;;;;;;119.93;49.83;;;12.90;55.70;;;;;;5002384;28;20502;-76
2022/03/16 05:09:05;;;;;;;131.43;51.70;;;12.80;56.50;;;;;;5007172;28;20483;-75
2022/03/16 05:11:30;;;;;;;138.77;55.17;;;12.80;56.30;;;;;;5006857;28;20203;-75
2022/03/16 05:13:58;;;;;;;139.33;56.30;;;12.70;57.00;;;;;;5008608;28;20182;-75
2022/03/16 05:16:24;;;;;;;138.03;54.80;;;12.70;57.40;;;;;;5005607;28;20264;-75
2022/03/16 05:18:50;;;;;;;127.53;52.50;;;12.80;56.80;;;;;;5003425;28;20522;-75
2022/03/16 05:21:15;;;;;;;151.00;56.53;;;12.80;56.60;;;;;;5009199;28;20204;-75
2022/03/16 05:23:41;;;;;;;196.17;53.30;;;13.10;55.00;;;;;;5002963;28;20182;-75
2022/03/16 05:26:07;;;;;;;196.67;56.03;;;13.30;56.70;;;;;;5010847;28;20170;-75
2022/03/16 05:28:33;;;;;;;137.53;51.77;;;12.90;56.10;;;;;;5010568;28;20220;-75
2022/03/16 05:30:58;;;;;;;176.53;53.47;;;13.00;55.60;;;;;;5010723;28;20612;-75
2022/03/16 05:33:24;;;;;;;135.57;51.27;;;12.70;58.10;;;;;;5010553;28;20424;-75
2022/03/16 05:35:50;;;;;;;140.70;54.07;;;13.10;57.10;;;;;;5000097;28;20194;-75
2022/03/16 05:38:17;;;;;;;190.00;55.40;;;12.70;57.90;;;;;;5010107;28;20193;-75
2022/03/16 05:40:43;;;;;;;146.53;51.87;;;12.80;56.70;;;;;;5006835;28;20471;-75
2022/03/16 05:43:10;;;;;;;135.43;54.40;;;12.80;56.90;;;;;;4987395;22;20632;-72
2022/03/16 05:45:36;;;;;;;126.43;51.90;;;12.80;57.70;;;;;;4971020;28;20806;-72
2022/03/16 05:48:03;;;;;;;196.43;52.87;;;12.70;58.30;;;;;;4974992;28;20513;-72
2022/03/16 05:50:29;;;;;;;143.90;54.93;;;12.50;59.30;;;;;;4965182;28;20568;-72
2022/03/16 05:52:56;;;;;;;156.60;58.03;;;12.40;61.10;;;;;;4974372;28;20536;-72
2022/03/16 05:55:22;;;;;;;145.77;56.70;;;12.50;60.20;;;;;;4975315;28;20418;-72
2022/03/16 05:57:49;;;;;;;151.57;58.40;;;13.00;60.20;;;;;;4974869;28;20437;-72
2022/03/16 06:00:17;;;;;;;158.90;58.53;;;12.50;60.10;;;;;;4967211;28;20202;-72
2022/03/16 06:02:46;;;;;;;160.57;59.13;;;12.60;59.60;;;;;;4974560;28;20445;-72
2022/03/16 06:05:13;;;;;;;159.63;57.33;;;12.70;58.70;;;;;;4975176;28;20430;-72
2022/03/16 06:07:38;;;;;;;170.40;56.60;;;12.30;61.20;;;;;;4974509;28;20422;-72
2022/03/16 06:10:06;;;;;;;154.43;56.40;;;12.50;60.70;;;;;;4974658;28;20433;-72
2022/03/16 06:12:32;;;;;;;150.70;52.73;;;12.70;58.90;;;;;;4974051;28;20984;-72
2022/03/16 06:14:57;;;;;;;143.90;55.00;;;12.60;59.20;;;;;;4974825;28;20429;-72
2022/03/16 06:17:23;;;;;;;144.03;56.37;;;13.10;59.10;;;;;;4974532;28;20179;-72
2022/03/16 06:19:49;;;;;;;139.27;51.90;;;12.70;58.60;;;;;;4975185;28;20208;-72
2022/03/16 06:22:14;;;;;;;110.73;47.50;;;12.70;58.60;;;;;;4974499;28;20226;-72
2022/03/16 06:24:40;;;;;;;106.43;44.50;;;13.10;56.70;;;;;;4974789;28;20457;-72
2022/03/16 06:27:06;;;;;;;107.07;46.17;;;13.00;55.50;;;;;;4974523;28;20174;-72
2022/03/16 06:29:32;;;;;;;144.03;46.97;;;13.10;55.20;;;;;;4974433;28;20241;-72
2022/03/16 06:31:57;;;;;;;92.43;44.63;;;13.10;55.10;;;;;;4974460;28;20198;-72
2022/03/16 06:34:23;;;;;;;124.20;47.67;;;13.40;54.70;;;;;;4974825;28;20422;-72
2022/03/16 06:36:49;;;;;;;109.43;47.83;;;12.90;55.70;;;;;;4974787;28;20842;-72
2022/03/16 06:39:14;;;;;;;113.10;49.87;;;12.90;56.40;;;;;;4975076;28;20652;-72
2022/03/16 06:41:41;;;;;;;103.03;46.33;;;13.10;55.40;;;;;;4975249;28;20219;-72
2022/03/16 06:44:07;;;;;;;106.70;46.47;;;13.10;54.60;;;;;;4975039;28;20551;-72
2022/03/16 06:46:32;;;;;;;98.33;46.20;;;13.00;55.30;;;;;;4974796;28;20418;-72
2022/03/16 06:48:58;;;;;;;118.23;47.57;;;13.10;54.90;;;;;;4976439;28;20727;-73
2022/03/16 06:51:23;;;;;;;110.27;44.87;;;13.10;55.30;;;;;;4977275;28;20187;-72
2022/03/16 06:53:49;;;;;;;87.63;43.87;;;13.30;53.60;;;;;;4975722;28;20362;-72
2022/03/16 06:56:15;;;;;;;90.13;42.73;;;13.20;54.00;;;;;;4975297;28;20636;-72
2022/03/16 06:58:40;;;;;;;108.10;44.60;;;13.20;54.10;;;;;;4973996;28;20247;-72
2022/03/16 07:01:06;;;;;;;100.23;44.60;;;13.30;53.30;;;;;;4973622;28;20191;-72
2022/03/16 07:03:31;;;;;;;94.33;46.17;;;13.10;55.30;;;;;;4972755;28;20282;-72
2022/03/16 07:05:57;;;;;;;92.03;46.97;;;13.40;52.50;;;;;;4973804;28;20181;-72
2022/03/16 07:08:23;;;;;;;99.93;46.33;;;13.30;53.00;;;;;;4973571;28;20175;-72
2022/03/16 07:10:48;;;;;;;102.60;44.80;;;13.60;51.90;;;;;;4973734;28;20211;-72
2022/03/16 07:13:14;;;;;;;121.93;45.90;;;13.40;52.00;;;;;;4973739;28;20199;-72
2022/03/16 07:15:42;;;;;;;99.43;44.97;;;13.40;52.90;;;;;;4973260;28;20230;-72
2022/03/16 07:18:09;;;;;;;108.30;45.70;;;12.90;54.70;;;;;;4968578;28;20431;-72
2022/03/16 07:20:35;;;;;;;100.73;43.23;;;12.70;58.20;;;;;;4971314;28;20457;-72
2022/03/16 07:23:05;;;;;;;141.50;46.80;;;12.80;58.40;;;;;;4973962;28;20438;-72
2022/03/16 07:25:31;;;;;;;100.63;47.00;;;13.20;56.40;;;;;;4965540;28;20422;-72
2022/03/16 07:27:57;;;;;;;110.17;46.43;;;13.10;56.00;;;;;;4973217;28;20476;-72
2022/03/16 07:30:23;;;;;;;98.17;45.60;;;13.30;54.80;;;;;;4973203;28;20427;-72
2022/03/16 07:32:48;;;;;;;103.57;44.07;;;13.30;54.90;;;;;;4973321;28;20732;-72
2022/03/16 07:35:14;;;;;;;102.47;46.63;;;12.80;57.60;;;;;;4973771;28;20429;-72
2022/03/16 07:37:42;;;;;;;100.50;46.57;;;12.80;58.90;;;;;;4972984;28;20179;-72
2022/03/16 07:40:08;;;;;;;106.07;45.47;;;12.80;58.50;;;;;;4971872;28;20171;-72
2022/03/16 07:42:35;;;;;;;87.13;44.77;;;13.00;56.60;;;;;;4972433;28;20958;-72
2022/03/16 07:45:01;;;;;;;104.10;45.90;;;13.10;57.00;;;;;;4973562;28;20480;-72
2022/03/16 07:47:27;;;;;;;93.87;44.80;;;13.30;56.00;;;;;;4972837;28;21153;-72
2022/03/16 07:49:53;;;;;;;88.83;43.60;;;13.30;55.60;;;;;;4972802;28;20419;-71
2022/03/16 07:52:21;;;;;;;90.23;42.67;;;13.20;55.20;;;;;;4973416;28;20207;-76
2022/03/16 07:54:47;;;;;;;84.73;41.37;;;13.20;55.70;;;;;;4972691;28;20437;-76
2022/03/16 07:57:12;;;;;;;76.83;40.37;;;13.20;56.40;;;;;;4973033;28;20422;-76
2022/03/16 07:59:38;;;;;;;79.03;39.67;;;13.50;54.20;;;;;;4972719;28;20193;-76
2022/03/16 08:02:04;;;;;;;78.93;39.43;;;13.70;52.90;;;;;;4969777;28;20285;-76
2022/03/16 08:04:29;;;;;;;74.87;39.93;;;13.90;51.70;;;;;;4973172;28;20675;-75
2022/03/16 08:06:55;;;;;;;66.60;36.90;;;14.20;50.80;;;;;;4972865;28;20423;-75
2022/03/16 08:09:20;;;;;;;73.50;36.30;;;14.40;49.30;;;;;;4972433;28;20667;-75
2022/03/16 08:11:46;;;;;;;68.43;37.17;;;14.40;48.90;;;;;;4972019;28;20209;-72
2022/03/16 08:14:12;;;;;;;64.30;35.00;;;14.50;48.30;;;;;;4972229;28;20198;-73
2022/03/16 08:16:38;;;;;;;68.43;36.23;;;14.20;48.80;;;;;;4972836;28;20228;-74
2022/03/16 08:19:04;;;;;;;62.33;35.40;;;14.40;47.80;;;;;;4975174;28;20437;-73
2022/03/16 08:21:30;;;;;;;69.03;38.97;;;14.60;48.80;;;;;;4972142;28;20478;-73
2022/03/16 08:23:55;;;;;;;66.40;37.70;;;14.70;47.90;;;;;;4972307;28;20181;-74
2022/03/16 08:26:21;;;;;;;74.53;40.10;;;14.60;47.90;;;;;;4972623;28;20182;-75
2022/03/16 08:28:47;;;;;;;67.60;39.40;;;14.60;48.40;;;;;;4971952;28;20182;-75
2022/03/16 08:31:15;;;;;;;68.23;39.43;;;14.50;48.50;;;;;;4970885;28;20236;-74
2022/03/16 08:33:41;;;;;;;71.73;39.53;;;14.50;50.40;;;;;;4971897;28;20468;-74
2022/03/16 08:36:08;;;;;;;63.87;37.30;;;14.90;49.00;;;;;;4966870;28;20865;-74
2022/03/16 08:38:37;;;;;;;67.00;39.17;;;14.90;48.90;;;;;;4971801;28;20426;-74
2022/03/16 08:41:07;;;;;;;66.10;38.20;;;15.00;49.10;;;;;;4968250;28;20495;-74
2022/03/16 08:43:33;;;;;;;64.37;38.73;;;15.10;48.10;;;;;;4971746;28;20801;-74
2022/03/16 08:45:59;;;;;;;75.57;39.17;;;15.30;47.20;;;;;;4972562;28;20786;-74
2022/03/16 08:48:26;;;;;;;76.97;39.53;;;14.10;51.10;;;;;;4971780;28;20421;-74
2022/03/16 08:50:52;;;;;;;70.43;38.67;;;14.40;51.80;;;;;;4971682;28;20958;-74
2022/03/16 08:53:18;;;;;;;77.50;41.20;;;14.80;50.10;;;;;;4971813;28;20447;-73
2022/03/16 08:55:44;;;;;;;76.20;40.13;;;15.20;47.10;;;;;;4972205;28;20788;-74
2022/03/16 08:58:09;;;;;;;82.07;41.03;;;15.50;44.70;;;;;;4972420;28;20234;-75
2022/03/16 09:00:37;;;;;;;77.43;40.33;;;15.70;44.80;;;;;;4972584;28;20195;-74
2022/03/16 09:03:03;;;;;;;80.40;41.17;;;15.70;45.30;;;;;;4972518;28;20190;-74
2022/03/16 09:05:29;;;;;;;81.10;42.70;;;15.70;43.90;;;;;;4972427;28;20416;-74
2022/03/16 09:07:54;;;;;;;88.60;43.20;;;15.60;44.30;;;;;;4972291;28;20406;-74
2022/03/16 09:10:20;;;;;;;92.23;45.03;;;15.80;44.10;;;;;;4971413;28;20481;-75
2022/03/16 09:12:46;;;;;;;89.73;43.27;;;15.90;42.80;;;;;;4970873;28;20687;-76
2022/03/16 09:15:12;;;;;;;94.97;43.90;;;16.10;43.20;;;;;;4971918;28;20457;-75
2022/03/16 09:17:38;;;;;;;78.10;42.70;;;16.10;43.60;;;;;;4971516;28;20197;-74
2022/03/16 09:20:04;;;;;;;90.77;45.43;;;15.50;44.30;;;;;;4971748;28;20422;-77
2022/03/16 09:22:30;;;;;;;97.00;45.20;;;15.30;44.70;;;;;;4969542;28;20688;-72
2022/03/16 09:24:56;;;;;;;91.80;46.10;;;15.30;44.80;;;;;;4965475;28;20416;-75
2022/03/16 09:27:23;;;;;;;90.10;43.57;;;15.40;45.40;;;;;;4974906;28;20323;-73
2022/03/16 09:29:48;;;;;;;116.07;44.10;;;16.10;43.20;;;;;;4975820;28;20429;-72
2022/03/16 09:32:14;;;;;;;77.63;43.57;;;15.80;43.30;;;;;;4976311;28;20531;-74
2022/03/16 09:34:40;;;;;;;82.70;45.60;;;16.00;43.60;;;;;;4975579;28;20186;-72
2022/03/16 09:37:07;;;;;;;79.37;42.50;;;15.50;42.90;;;;;;4973999;28;20200;-74
2022/03/16 09:39:35;;;;;;;94.30;43.83;;;15.20;45.60;;;;;;4974692;28;20516;-73
2022/03/16 09:42:02;;;;;;;87.50;44.63;;;15.70;45.50;;;;;;4975012;28;20868;-74
2022/03/16 09:44:30;;;;;;;89.50;43.80;;;16.00;42.80;;;;;;4975463;28;20432;-73
2022/03/16 09:46:57;;;;;;;86.60;42.90;;;16.00;42.90;;;;;;4969352;28;20428;-73
2022/03/16 09:49:23;;;;;;;88.17;42.70;;;15.70;44.30;;;;;;4973426;28;21774;-75
2022/03/16 09:51:50;;;;;;;82.40;43.10;;;15.80;45.00;;;;;;4974976;28;20448;-73
2022/03/16 09:54:16;;;;;;;80.97;42.47;;;15.50;42.80;;;;;;4975486;28;20455;-73
2022/03/16 09:56:43;;;;;;;73.77;42.63;;;15.60;44.40;;;;;;4975308;28;20946;-79
2022/03/16 09:59:10;;;;;;;77.63;39.60;;;15.00;44.90;;;;;;4969804;28;20827;-76
2022/03/16 10:01:36;;;;;;;101.23;41.00;;;16.00;44.20;;;;;;4975112;28;20465;-75
2022/03/16 10:04:05;;;;;;;84.87;40.87;;;16.20;42.90;;;;;;4975513;28;20453;-75
2022/03/16 10:06:31;;;;;;;69.40;39.90;;;16.50;41.00;;;;;;4974771;28;20782;-75
2022/03/16 10:14:25;;;;;;;74.30;39.20;;;16.10;44.70;;;;;;4977458;28;20439;-73
2022/03/16 10:20:07;;;;;;;42.07;24.63;;;17.80;39.20;;;;;;4907594;29;21019;-75
2022/03/16 10:22:37;;;;;;;27.33;17.70;;;17.70;36.50;;;;;;4914352;29;20496;-74
2022/03/16 10:25:05;;;;;;;23.10;17.10;;;17.30;38.60;;;;;;4914636;29;20946;-74
2022/03/16 10:27:38;;;;;;;24.20;16.80;;;16.90;37.60;;;;;;4914466;29;21017;-74
2022/03/16 10:30:08;;;;;;;27.00;17.50;;;16.60;38.50;;;;;;4894040;29;20865;-74
2022/03/16 10:32:34;;;;;;;24.90;17.50;;;16.70;38.60;;;;;;4917925;29;20890;-75
2022/03/16 10:35:07;;;;;;;34.83;17.10;;;16.60;38.50;;;;;;4916713;29;20439;-76
2022/03/16 10:37:37;;;;;;;25.07;17.50;;;16.70;38.60;;;;;;4910149;29;20225;-75
2022/03/16 10:40:15;;;;;;;24.87;18.13;;;16.70;38.60;;;;;;4914340;29;20519;-75
2022/03/16 10:48:13;;;;;;;27.67;18.30;;;16.60;37.40;;;;;;4914114;29;20799;-75
2022/03/16 10:50:39;;;;;;;25.90;18.77;;;16.90;37.00;;;;;;4913085;29;20448;-75
2022/03/16 10:53:05;;;;;;;31.40;18.23;;;16.30;38.40;;;;;;4910387;29;20858;-74
2022/03/16 10:55:31;;;;;;;31.73;17.57;;;16.40;38.50;;;;;;4927056;28;20444;-74
2022/03/16 10:57:59;;;;;;;28.63;18.10;;;15.70;39.00;;;;;;4973725;28;20200;-73
2022/03/16 11:00:27;;;;;;;24.60;18.57;;;16.10;41.70;;;;;;4974193;28;20937;-74
2022/03/16 11:02:54;;;;;;;26.70;17.97;;;16.40;37.20;;;;;;4976037;28;20446;-75
2022/03/16 11:05:21;;;;;;;25.17;18.40;;;16.20;37.60;;;;;;4966835;28;20436;-75
2022/03/16 11:07:51;;;;;;;23.70;18.47;;;16.20;39.00;;;;;;4973770;28;20519;-75
2022/03/16 11:10:17;;;;;;;22.47;17.37;;;16.60;35.10;;;;;;4972513;28;20429;-77
2022/03/16 11:15:30;;;;;;;32.33;17.30;;;15.90;36.60;;;;;;4981849;28;20472;-76
2022/03/16 11:17:56;;;;;;;28.73;17.50;;;16.00;36.30;;;;;;4975971;28;20916;-75
2022/03/16 11:20:22;;;;;;;21.23;17.30;;;15.30;37.30;;;;;;4973275;28;20436;-75
2022/03/16 11:26:14;;;;;;;28.37;19.60;;;15.70;38.70;;;;;;4973218;28;20425;-74
2022/03/16 11:29:00;;;;;;;27.50;18.90;;;16.50;36.10;;;;;;4973030;28;20421;-74
2022/03/16 11:31:30;;;;;;;27.50;19.27;;;17.10;35.00;;;;;;4966002;28;20504;-74
2022/03/16 11:33:58;;;;;;;29.73;19.80;;;16.70;36.20;;;;;;4976855;28;20430;-74
2022/03/16 11:36:34;;;;;;;32.40;19.10;;;17.20;34.20;;;;;;4974295;28;21017;-74
2022/03/16 11:39:02;;;;;;;27.43;19.40;;;16.60;34.00;;;;;;4973573;28;20420;-74
2022/03/16 11:41:29;;;;;;;25.87;18.60;;;16.00;35.80;;;;;;4968335;28;20470;-73
2022/03/16 11:44:24;;;;;;;31.93;19.87;;;15.60;37.30;;;;;;4973029;28;20433;-74
2022/03/16 11:46:50;;;;;;;25.43;19.07;;;16.00;37.00;;;;;;4965699;28;20506;-74
2022/03/16 11:49:30;;;;;;;30.17;17.83;;;15.90;36.60;;;;;;4972208;28;20788;-74
2022/03/16 11:52:00;;;;;;;28.50;19.50;;;16.40;35.30;;;;;;4972947;28;20923;-75
2022/03/16 11:54:48;;;;;;;25.77;18.60;;;15.90;35.80;;;;;;4972866;28;20462;-74
2022/03/16 11:57:34;;;;;;;26.27;18.47;;;15.90;36.00;;;;;;4970086;28;20502;-75
2022/03/16 12:00:13;;;;;;;30.57;18.90;;;16.00;35.10;;;;;;4968357;28;20424;-75
2022/03/16 12:02:39;;;;;;;34.90;20.47;;;16.00;35.80;;;;;;4966714;28;20444;-74
2022/03/16 12:05:07;;;;;;;30.37;20.90;;;15.70;37.60;;;;;;4966167;28;20412;-75
2022/03/16 12:07:36;;;;;;;32.07;19.90;;;15.70;36.80;;;;;;4967679;28;20306;-74
2022/03/16 12:10:11;;;;;;;31.17;20.43;;;15.60;38.00;;;;;;4971558;28;20456;-74
2022/03/16 12:12:51;;;;;;;32.13;21.30;;;15.60;37.10;;;;;;4980842;28;20492;-75
2022/03/16 12:15:28;;;;;;;31.40;21.20;;;15.40;36.50;;;;;;4970761;28;20401;-74
2022/03/16 12:17:54;;;;;;;34.07;19.80;;;16.00;35.80;;;;;;4972367;28;20931;-74
2022/03/16 12:20:25;;;;;;;35.63;19.40;;;16.30;34.30;;;;;;4972106;28;20426;-74
2022/03/16 12:22:55;;;;;;;32.63;19.93;;;16.20;36.00;;;;;;4969032;28;20232;-75
2022/03/16 12:25:27;;;;;;;33.07;21.90;;;16.40;35.50;;;;;;4984373;28;20512;-75
2022/03/16 12:30:42;;;;;;;37.27;19.83;;;15.80;36.50;;;;;;4972378;28;20431;-74
2022/03/16 12:33:39;;;;;;;34.93;19.00;;;15.30;36.20;;;;;;4971621;28;20542;-74
2022/03/16 12:36:07;;;;;;;27.93;18.93;;;15.50;36.90;;;;;;4965367;28;20430;-73
2022/03/16 12:38:37;;;;;;;26.30;19.20;;;15.70;37.20;;;;;;4959127;28;21245;-73
2022/03/16 12:43:49;;;;;;;33.60;20.57;;;15.40;37.40;;;;;;4972499;28;20514;-75
2022/03/16 12:46:36;;;;;;;26.50;19.10;;;15.40;37.20;;;;;;4972687;28;20513;-73